Time;durP1;ratioP1;P1;durP2;ratioP2;P2;SDS_P1;SDS_P2;PMS_P1;PMS_P2;Temp;Humidity;BMP_temperature;BMP_pressure;BME280_temperature;BME280_humidity;BME280_pressure;Samples;Min_cycle;Max_cycle;Signal;HPM_P1;HPM_P2
2023/04/21 00:03:32;;;;;;;36.93;24.40;;;7.70;99.90;;;;;;2614945;39;20747;-69
2023/04/21 00:09:20;;;;;;;38.80;24.97;;;7.60;99.90;;;;;;2614282;54;20391;-69
2023/04/21 00:15:08;;;;;;;43.70;28.70;;;7.60;99.90;;;;;;2614160;54;20546;-68
2023/04/21 00:20:56;;;;;;;41.80;27.67;;;7.60;99.90;;;;;;2614506;54;20387;-69
2023/04/21 00:26:44;;;;;;;36.20;27.50;;;7.60;99.90;;;;;;2614116;54;20141;-69
2023/04/21 00:32:32;;;;;;;41.93;28.70;;;7.60;99.90;;;;;;2614252;54;20665;-69
2023/04/21 00:38:19;;;;;;;36.90;28.10;;;7.70;99.90;;;;;;2613879;54;20162;-69
2023/04/21 00:44:09;;;;;;;45.20;32.63;;;7.60;99.90;;;;;;2613701;54;20134;-69
2023/04/21 00:49:57;;;;;;;46.77;28.57;;;7.60;99.90;;;;;;2614214;54;20355;-67
2023/04/21 00:53:13;;;;;;;42.77;30.77;;;7.60;99.90;;;;;;2613487;54;20990;-69
2023/04/21 00:55:39;;;;;;;46.70;29.10;;;7.60;99.90;;;;;;2613203;47;21027;-69
2023/04/21 01:01:33;;;;;;;42.43;31.27;;;7.70;99.90;;;;;;2614597;54;20130;-69
2023/04/21 01:07:20;;;;;;;40.60;29.27;;;7.70;99.90;;;;;;2614045;54;20395;-68
2023/04/21 01:13:08;;;;;;;49.73;30.33;;;7.70;99.90;;;;;;2614120;54;20150;-72
2023/04/21 01:18:56;;;;;;;51.10;32.73;;;7.60;99.90;;;;;;2613776;54;20204;-73
2023/04/21 01:24:48;;;;;;;45.53;32.10;;;7.70;99.90;;;;;;2613492;54;20387;-72
2023/04/21 01:30:36;;;;;;;50.17;33.03;;;7.70;99.90;;;;;;2613737;39;20524;-73
2023/04/21 01:36:24;;;;;;;48.43;32.87;;;7.60;99.90;;;;;;2614244;54;20204;-73
2023/04/21 01:42:12;;;;;;;49.50;32.83;;;7.60;99.90;;;;;;2614118;54;20126;-72
2023/04/21 01:48:00;;;;;;;60.80;37.87;;;7.60;99.90;;;;;;2613951;54;20419;-72
2023/04/21 01:57:44;;;;;;;51.50;33.37;;;7.50;99.90;;;;;;2613725;54;20410;-73
2023/04/21 02:03:32;;;;;;;56.10;35.43;;;7.60;99.90;;;;;;2614039;54;20398;-72
2023/04/21 02:09:19;;;;;;;56.60;34.20;;;7.70;99.90;;;;;;2613786;54;20158;-72
2023/04/21 02:15:07;;;;;;;52.93;34.40;;;7.60;99.90;;;;;;2613673;54;20661;-72
2023/04/21 02:20:55;;;;;;;60.03;35.00;;;7.60;99.90;;;;;;2613961;54;20371;-72
2023/04/21 02:26:42;;;;;;;60.57;35.63;;;7.60;99.90;;;;;;2613876;54;20153;-72
2023/04/21 02:32:31;;;;;;;70.37;37.27;;;7.60;99.90;;;;;;2614500;54;20125;-72
2023/04/21 02:38:18;;;;;;;54.53;36.17;;;7.60;99.90;;;;;;2614408;54;20887;-73
2023/04/21 02:44:06;;;;;;;59.60;36.57;;;7.60;99.90;;;;;;2613924;54;20143;-73
2023/04/21 02:49:54;;;;;;;52.00;32.97;;;7.60;99.90;;;;;;2614912;54;20134;-73
2023/04/21 02:53:12;;;;;;;61.33;38.53;;;7.70;99.90;;;;;;2613730;47;20409;-73
2023/04/21 02:55:38;;;;;;;71.27;38.60;;;7.70;99.90;;;;;;2613882;54;20151;-73
2023/04/21 03:01:26;;;;;;;60.30;37.70;;;7.70;99.90;;;;;;2614809;54;20146;-73
2023/04/21 03:07:14;;;;;;;63.37;38.77;;;7.70;99.90;;;;;;2614436;54;20892;-73
2023/04/21 03:13:01;;;;;;;64.27;40.47;;;7.70;99.90;;;;;;2614809;54;21226;-73
2023/04/21 03:18:49;;;;;;;63.10;39.30;;;7.70;99.90;;;;;;2614633;54;20126;-72
2023/04/21 03:24:37;;;;;;;65.80;39.10;;;7.70;99.90;;;;;;2614348;54;20227;-73
2023/04/21 03:30:25;;;;;;;58.20;38.07;;;7.80;99.90;;;;;;2614238;54;20157;-73
2023/04/21 03:36:12;;;;;;;61.97;39.63;;;7.80;99.90;;;;;;2614042;54;20403;-73
2023/04/21 03:42:00;;;;;;;58.13;38.50;;;7.70;99.90;;;;;;2614801;39;20520;-73
2023/04/21 03:47:51;;;;;;;55.33;37.53;;;7.70;99.90;;;;;;2614124;54;20137;-73
2023/04/21 03:57:44;;;;;;;64.90;37.87;;;7.60;99.90;;;;;;2614334;54;20391;-72
2023/04/21 04:03:32;;;;;;;52.47;36.07;;;7.60;99.90;;;;;;2614219;54;20394;-73
2023/04/21 04:09:20;;;;;;;62.60;37.80;;;7.60;99.90;;;;;;2614254;54;20366;-72
2023/04/21 04:15:08;;;;;;;58.53;38.37;;;7.50;99.90;;;;;;2614470;39;20532;-73
2023/04/21 04:20:55;;;;;;;58.57;37.30;;;7.60;99.90;;;;;;2614309;54;20447;-72
2023/04/21 04:26:44;;;;;;;58.63;38.83;;;7.60;99.90;;;;;;2614100;54;20130;-72
2023/04/21 04:32:32;;;;;;;63.43;38.27;;;7.60;99.90;;;;;;2614085;54;20414;-73
2023/04/21 04:38:21;;;;;;;57.70;37.40;;;7.70;99.90;;;;;;2614063;54;20394;-73
2023/04/21 04:44:10;;;;;;;60.23;40.80;;;7.70;99.90;;;;;;2614070;54;20402;-72
2023/04/21 04:49:57;;;;;;;60.10;39.47;;;7.70;99.90;;;;;;2614202;54;20500;-71
2023/04/21 04:55:58;;;;;;;59.87;39.87;;;7.70;99.90;;;;;;2612446;54;20139;-72
2023/04/21 04:59:00;;;;;;;61.63;38.07;;;7.70;99.90;;;;;;2613578;31;20975;-72
2023/04/21 05:01:29;;;;;;;61.87;41.43;;;7.70;99.90;;;;;;2612990;54;20426;-72
2023/04/21 05:07:16;;;;;;;71.93;43.50;;;7.80;99.90;;;;;;2612749;54;20439;-72
2023/04/21 05:16:25;;;;;;;74.17;41.63;;;7.70;99.90;;;;;;2612913;54;20520;-74
2023/04/21 05:22:12;;;;;;;71.77;44.10;;;7.70;99.90;;;;;;2613248;39;20531;-73
2023/04/21 05:27:59;;;;;;;71.77;46.53;;;7.80;99.90;;;;;;2612385;54;20134;-72
2023/04/21 05:33:47;;;;;;;75.43;45.70;;;7.70;99.90;;;;;;2613615;54;20479;-73
2023/04/21 05:39:34;;;;;;;74.33;43.77;;;7.70;99.90;;;;;;2613748;54;20166;-72
2023/04/21 05:45:22;;;;;;;74.77;44.90;;;8.20;99.90;;;;;;2613735;54;20624;-72
2023/04/21 05:51:16;;;;;;;58.53;38.77;;;9.00;99.90;;;;;;2614347;39;20542;-73
2023/04/21 06:00:26;;;;;;;69.43;40.23;;;8.40;99.90;;;;;;2613904;54;20422;-73
2023/04/21 06:06:14;;;;;;;71.83;40.07;;;8.40;99.90;;;;;;2613792;54;20123;-73
2023/04/21 06:12:02;;;;;;;73.53;41.90;;;8.60;99.90;;;;;;2613721;54;20242;-73
2023/04/21 06:17:54;;;;;;;70.57;42.97;;;8.60;99.90;;;;;;2613690;54;20422;-74
2023/04/21 06:23:41;;;;;;;69.50;42.20;;;8.80;99.90;;;;;;2613278;54;20360;-74
2023/04/21 06:29:29;;;;;;;65.37;45.07;;;9.30;99.90;;;;;;2613530;54;20134;-72
2023/04/21 06:35:19;;;;;;;62.30;40.47;;;9.70;99.90;;;;;;2613495;54;20139;-73
2023/04/21 06:41:06;;;;;;;60.93;40.47;;;9.60;99.90;;;;;;2613441;39;20574;-73
2023/04/21 06:46:54;;;;;;;61.13;42.20;;;9.50;99.90;;;;;;2613711;54;20196;-73
2023/04/21 06:52:42;;;;;;;54.10;37.40;;;9.50;99.90;;;;;;2614326;54;20154;-73
2023/04/21 06:55:44;;;;;;;50.80;40.50;;;9.50;99.90;;;;;;2613340;54;20380;-73
2023/04/21 06:58:10;;;;;;;48.43;37.90;;;9.60;99.90;;;;;;2612751;54;20150;-74
2023/04/21 07:03:58;;;;;;;46.43;38.00;;;9.90;99.90;;;;;;2613462;54;20371;-73
2023/04/21 07:09:47;;;;;;;53.90;41.77;;;10.10;99.90;;;;;;2613334;54;20142;-73
2023/04/21 07:15:34;;;;;;;53.07;41.20;;;10.00;99.90;;;;;;2614055;54;20423;-73
2023/04/21 07:21:22;;;;;;;49.70;37.03;;;10.30;99.90;;;;;;2614400;54;20804;-73
2023/04/21 07:27:09;;;;;;;52.37;38.17;;;10.60;99.90;;;;;;2613790;54;20186;-73
2023/04/21 07:32:57;;;;;;;40.90;35.00;;;10.80;99.90;;;;;;2614689;39;20520;-73
2023/04/21 07:38:44;;;;;;;45.03;36.20;;;11.30;99.90;;;;;;2614113;54;20153;-74
2023/04/21 07:44:33;;;;;;;41.87;36.80;;;11.60;99.90;;;;;;2614238;54;20146;-74
2023/04/21 07:50:21;;;;;;;41.17;33.53;;;11.40;99.90;;;;;;2614156;54;20512;-75
2023/04/21 08:00:14;;;;;;;37.43;33.00;;;11.90;99.90;;;;;;2613944;54;20404;-73
2023/04/21 08:06:02;;;;;;;39.50;32.07;;;11.90;99.90;;;;;;2614331;54;20395;-74
2023/04/21 08:11:49;;;;;;;34.33;30.60;;;11.80;99.90;;;;;;2614247;54;20126;-74
2023/04/21 08:17:37;;;;;;;36.10;30.63;;;11.70;99.90;;;;;;2614315;54;20166;-74
2023/04/21 08:23:25;;;;;;;40.93;31.47;;;11.80;99.90;;;;;;2614471;54;20227;-75
2023/04/21 08:29:12;;;;;;;38.03;30.27;;;12.00;99.90;;;;;;2614054;54;20178;-74
2023/04/21 08:35:00;;;;;;;35.13;28.23;;;12.30;99.90;;;;;;2614158;54;20235;-74
2023/04/21 08:40:48;;;;;;;34.10;29.63;;;12.10;99.90;;;;;;2613822;54;20767;-74
2023/04/21 08:46:36;;;;;;;36.40;32.50;;;12.30;99.90;;;;;;2613835;54;20418;-74
2023/04/21 08:52:24;;;;;;;32.43;28.40;;;11.90;99.90;;;;;;2614180;54;20502;-73
2023/04/21 08:55:43;;;;;;;34.93;27.93;;;12.40;99.90;;;;;;2613805;54;20403;-73
2023/04/21 08:58:09;;;;;;;36.30;29.93;;;12.30;99.90;;;;;;2613691;39;20585;-75
2023/04/21 09:10:43;;;;;;;37.07;29.33;;;12.70;99.90;;;;;;2613589;54;20394;-74
2023/04/21 09:16:34;;;;;;;32.33;27.60;;;12.90;99.90;;;;;;2613998;54;20419;-74
2023/04/21 09:22:28;;;;;;;35.13;28.77;;;12.90;99.90;;;;;;2614208;54;20511;-74
2023/04/21 09:28:15;;;;;;;33.17;27.70;;;12.80;99.90;;;;;;2613908;46;20462;-74
2023/04/21 09:40:40;;;;;;;30.17;26.90;;;13.00;99.90;;;;;;2613624;54;20431;-75
2023/04/21 09:46:31;;;;;;;34.80;26.83;;;13.10;99.90;;;;;;2614062;54;20154;-75
2023/04/21 09:52:19;;;;;;;33.17;29.57;;;13.60;99.90;;;;;;2614141;54;20399;-74
2023/04/21 09:55:43;;;;;;;30.77;27.70;;;13.40;99.90;;;;;;2613274;54;20479;-74
2023/04/21 09:58:11;;;;;;;32.80;28.13;;;13.30;99.90;;;;;;2613154;47;20499;-74
2023/04/21 10:03:59;;;;;;;33.73;28.17;;;13.40;99.90;;;;;;2613684;54;20430;-74
2023/04/21 10:09:52;;;;;;;30.20;26.90;;;13.40;99.90;;;;;;2614095;54;20162;-75
2023/04/21 10:15:41;;;;;;;30.60;27.27;;;13.30;99.90;;;;;;2613904;54;20366;-74
2023/04/21 10:21:35;;;;;;;34.93;29.50;;;13.00;99.90;;;;;;2613855;54;20415;-74
2023/04/21 10:27:38;;;;;;;35.70;28.73;;;13.40;99.90;;;;;;2613639;54;20398;-74
2023/04/21 10:33:26;;;;;;;33.93;28.63;;;13.70;99.90;;;;;;2613765;54;20399;-74
2023/04/21 10:39:32;;;;;;;33.83;30.27;;;13.70;99.90;;;;;;2613485;46;20390;-75
2023/04/21 10:45:19;;;;;;;34.57;29.50;;;13.80;99.90;;;;;;2613617;54;20929;-74
2023/04/21 10:51:10;;;;;;;31.37;28.00;;;13.60;99.90;;;;;;2614550;54;20123;-74
2023/04/21 11:00:23;;;;;;;32.83;28.43;;;13.50;99.90;;;;;;2614357;54;20426;-74
2023/04/21 11:06:16;;;;;;;33.13;29.63;;;13.50;99.90;;;;;;2614797;54;20474;-73
2023/04/21 11:12:06;;;;;;;37.43;27.80;;;13.70;99.90;;;;;;2614216;54;20929;-74
2023/04/21 11:17:54;;;;;;;30.30;26.17;;;14.40;99.90;;;;;;2614487;54;20451;-74
2023/04/21 11:23:48;;;;;;;29.57;26.47;;;15.30;99.90;;;;;;2613841;54;20487;-74
2023/04/21 11:29:35;;;;;;;28.53;25.83;;;16.50;99.90;;;;;;2606387;54;20483;-74
2023/04/21 11:35:23;;;;;;;28.43;25.67;;;17.00;99.90;;;;;;2612875;54;20130;-74
2023/04/21 11:41:11;;;;;;;31.50;28.30;;;17.90;99.90;;;;;;2614492;54;20246;-75
2023/04/21 11:46:59;;;;;;;27.37;24.93;;;16.90;99.90;;;;;;2613870;54;20637;-74
2023/04/21 11:52:49;;;;;;;28.90;26.40;;;17.00;99.90;;;;;;2613640;54;20355;-75
2023/04/21 11:55:48;;;;;;;29.80;26.90;;;16.20;99.90;;;;;;2613220;39;20796;-74
2023/04/21 11:58:16;;;;;;;29.67;26.97;;;16.20;99.90;;;;;;2614219;54;20419;-74
2023/04/21 12:04:04;;;;;;;29.23;26.57;;;15.80;99.90;;;;;;2613762;54;21021;-74
2023/04/21 12:09:52;;;;;;;28.00;25.47;;;15.60;99.90;;;;;;2613933;39;20543;-74
2023/04/21 12:15:43;;;;;;;29.77;26.80;;;15.80;99.90;;;;;;2612967;39;20760;-72
2023/04/21 12:21:31;;;;;;;28.73;26.13;;;15.80;99.90;;;;;;2613976;54;20423;-74
2023/04/21 12:27:19;;;;;;;30.73;26.53;;;15.90;99.90;;;;;;2613954;54;20178;-74
2023/04/21 12:33:07;;;;;;;29.77;27.17;;;16.10;99.90;;;;;;2614080;54;21049;-75
2023/04/21 12:38:55;;;;;;;28.10;25.37;;;16.90;99.90;;;;;;2614067;54;20126;-74
2023/04/21 12:44:42;;;;;;;31.50;28.80;;;17.90;99.90;;;;;;2614216;54;20126;-73
2023/04/21 12:50:30;;;;;;;30.23;27.63;;;17.30;99.90;;;;;;2612932;39;20672;-74
2023/04/21 13:00:14;;;;;;;28.80;26.17;;;17.80;99.90;;;;;;2613239;54;20497;-77
2023/04/21 13:06:02;;;;;;;30.20;27.70;;;17.50;99.50;;;;;;2612543;54;20419;-74
2023/04/21 13:11:50;;;;;;;28.00;25.70;;;17.80;97.00;;;;;;2613438;54;20664;-74
2023/04/21 13:17:38;;;;;;;26.30;24.10;;;18.00;95.30;;;;;;2612190;54;20387;-74
2023/04/21 13:23:26;;;;;;;27.50;25.10;;;17.80;94.50;;;;;;2611872;54;20126;-75
2023/04/21 13:29:14;;;;;;;26.20;24.17;;;17.70;92.40;;;;;;2611969;54;20379;-74
2023/04/21 13:35:07;;;;;;;26.43;24.10;;;18.20;91.10;;;;;;2611168;39;20718;-74
2023/04/21 13:40:55;;;;;;;27.90;25.60;;;17.70;87.80;;;;;;2612472;54;20948;-74
2023/04/21 13:46:43;;;;;;;27.20;24.60;;;18.20;83.00;;;;;;2612798;54;20544;-74
2023/04/21 13:52:32;;;;;;;27.13;24.83;;;17.70;77.00;;;;;;2610188;54;20182;-74
2023/04/21 13:55:43;;;;;;;27.20;24.50;;;17.70;75.60;;;;;;2610173;47;20428;-73
2023/04/21 13:58:10;;;;;;;23.90;21.80;;;18.00;74.90;;;;;;2612487;54;20457;-74
2023/04/21 14:03:58;;;;;;;24.97;22.77;;;18.10;70.90;;;;;;2613329;54;20399;-74
2023/04/21 14:09:45;;;;;;;23.90;22.00;;;19.60;52.00;;;;;;2613159;54;20138;-74
2023/04/21 14:15:33;;;;;;;24.53;22.87;;;19.60;37.10;;;;;;2612778;54;20177;-74
2023/04/21 14:21:21;;;;;;;23.07;21.17;;;19.60;31.50;;;;;;2611137;54;20254;-73
2023/04/21 14:27:09;;;;;;;22.80;21.10;;;19.90;28.90;;;;;;2613214;54;20119;-74
2023/04/21 14:32:57;;;;;;;21.70;20.03;;;19.30;29.50;;;;;;2611625;54;20371;-74
2023/04/21 14:38:45;;;;;;;21.53;19.83;;;19.70;29.80;;;;;;2609953;54;20179;-74
2023/04/21 14:44:34;;;;;;;22.80;21.17;;;20.20;28.90;;;;;;2612436;54;20162;-74
2023/04/21 14:50:22;;;;;;;21.50;20.00;;;19.80;26.30;;;;;;2612052;54;20371;-73
2023/04/21 15:00:15;;;;;;;21.93;20.50;;;20.20;23.10;;;;;;2611360;54;20435;-74
2023/04/21 15:06:03;;;;;;;21.90;20.20;;;20.30;26.10;;;;;;2611691;54;20448;-74
2023/04/21 15:11:51;;;;;;;20.97;19.20;;;20.50;23.20;;;;;;2610516;47;20394;-74
2023/04/21 15:17:38;;;;;;;20.53;18.97;;;20.90;20.40;;;;;;2610476;54;20146;-75
2023/04/21 15:23:26;;;;;;;20.47;19.00;;;20.60;19.50;;;;;;2610102;54;20684;-74
2023/04/21 15:29:13;;;;;;;21.13;19.63;;;20.60;21.30;;;;;;2611871;54;20129;-73
2023/04/21 15:35:01;;;;;;;22.20;20.60;;;20.10;21.80;;;;;;2612423;54;20157;-74
2023/04/21 15:40:48;;;;;;;19.90;18.57;;;20.10;22.40;;;;;;2612702;54;20142;-74
2023/04/21 15:46:36;;;;;;;20.33;18.93;;;20.90;20.20;;;;;;2614049;39;20531;-74
2023/04/21 15:52:24;;;;;;;18.33;17.13;;;20.30;21.00;;;;;;2612972;54;20162;-74
2023/04/21 15:55:45;;;;;;;20.23;18.87;;;19.80;21.00;;;;;;2612009;54;20408;-72
2023/04/21 15:58:12;;;;;;;17.47;16.00;;;19.80;23.80;;;;;;2609555;54;20681;-73
2023/04/21 16:03:59;;;;;;;18.23;16.97;;;19.40;25.00;;;;;;2613439;54;20367;-74
2023/04/21 16:09:47;;;;;;;19.03;17.70;;;19.50;22.60;;;;;;2614040;54;21718;-73
2023/04/21 16:15:35;;;;;;;18.33;16.77;;;19.20;24.30;;;;;;2613887;54;20159;-74
2023/04/21 16:21:23;;;;;;;17.83;16.63;;;19.10;24.20;;;;;;2614473;54;20122;-75
2023/04/21 16:27:10;;;;;;;17.70;16.50;;;19.80;22.20;;;;;;2613300;39;20544;-74
2023/04/21 16:32:58;;;;;;;16.43;15.33;;;20.70;17.00;;;;;;2609308;54;20119;-74
2023/04/21 16:38:47;;;;;;;19.83;18.63;;;19.40;19.00;;;;;;2611924;54;20146;-74
2023/04/21 16:44:35;;;;;;;20.03;18.63;;;19.00;23.10;;;;;;2611394;54;20343;-75
2023/04/21 16:50:22;;;;;;;21.07;19.67;;;18.60;26.60;;;;;;2613268;54;20147;-74
2023/04/21 17:00:13;;;;;;;21.40;20.00;;;18.10;33.20;;;;;;2613078;46;20511;-74
2023/04/21 17:06:00;;;;;;;21.97;20.50;;;17.70;35.80;;;;;;2609809;54;20371;-75
2023/04/21 17:11:47;;;;;;;20.03;18.53;;;17.60;39.20;;;;;;2612209;54;20126;-73
2023/04/21 17:17:41;;;;;;;20.57;19.07;;;17.50;43.50;;;;;;2613655;39;20594;-74
2023/04/21 17:23:28;;;;;;;20.10;18.70;;;17.30;47.20;;;;;;2611870;54;20938;-75
2023/04/21 17:29:16;;;;;;;19.40;18.10;;;17.40;50.20;;;;;;2613068;54;20166;-75
2023/04/21 17:35:04;;;;;;;20.23;18.73;;;17.20;53.40;;;;;;2612822;54;21360;-75
2023/04/21 17:40:52;;;;;;;21.10;19.60;;;17.10;58.50;;;;;;2612984;46;20399;-75
2023/04/21 17:46:40;;;;;;;20.53;18.93;;;17.00;61.60;;;;;;2611095;54;20159;-75
2023/04/21 17:52:28;;;;;;;23.00;21.00;;;16.90;66.80;;;;;;2611546;54;20371;-75
2023/04/21 17:58:28;;;;;;;22.40;20.50;;;16.70;74.60;;;;;;2611335;39;21106;-74
2023/04/21 18:04:15;;;;;;;20.37;18.77;;;16.50;94.10;;;;;;2611395;54;20130;-75
2023/04/21 18:10:04;;;;;;;19.93;18.43;;;16.30;99.10;;;;;;2610378;54;22825;-74
2023/04/21 18:15:51;;;;;;;20.20;18.43;;;15.90;99.90;;;;;;2611218;39;21201;-74
2023/04/21 18:21:38;;;;;;;21.07;19.43;;;15.50;99.90;;;;;;2611334;39;20620;-75
2023/04/21 18:27:25;;;;;;;24.70;22.40;;;15.10;99.90;;;;;;2612453;54;20182;-74
2023/04/21 18:33:13;;;;;;;23.73;21.73;;;14.90;99.90;;;;;;2611876;54;20473;-75
2023/04/21 18:39:00;;;;;;;21.87;20.00;;;14.50;99.90;;;;;;2613464;54;20130;-75
2023/04/21 18:44:48;;;;;;;23.40;21.20;;;14.20;99.90;;;;;;2612946;54;20660;-75
2023/04/21 18:50:39;;;;;;;24.37;22.17;;;13.90;99.90;;;;;;2611703;54;20645;-75
2023/04/21 19:00:17;;;;;;;22.57;20.27;;;13.60;99.90;;;;;;2613419;54;20523;-75
2023/04/21 19:06:05;;;;;;;26.87;21.37;;;13.30;99.90;;;;;;2613879;54;20491;-77
2023/04/21 19:11:53;;;;;;;22.47;19.97;;;13.20;99.90;;;;;;2614491;54;20138;-76
2023/04/21 19:17:40;;;;;;;21.80;19.93;;;13.20;99.90;;;;;;2613764;39;20568;-75
2023/04/21 19:23:28;;;;;;;19.57;17.57;;;13.20;99.90;;;;;;2612602;54;20130;-75
2023/04/21 19:29:16;;;;;;;19.77;17.93;;;13.00;99.90;;;;;;2613223;54;20933;-74
2023/04/21 19:35:04;;;;;;;20.60;18.63;;;12.90;99.90;;;;;;2613405;54;20166;-74
2023/04/21 19:40:53;;;;;;;22.70;20.43;;;12.70;99.90;;;;;;2614514;39;20923;-74
2023/04/21 19:46:41;;;;;;;20.83;18.63;;;12.60;99.90;;;;;;2613392;54;20495;-74
2023/04/21 19:52:29;;;;;;;21.70;19.13;;;12.60;99.90;;;;;;2613781;54;20230;-73
2023/04/21 19:58:28;;;;;;;30.03;18.43;;;12.70;99.90;;;;;;2612983;54;21203;-74
2023/04/21 20:04:16;;;;;;;20.43;18.50;;;12.80;99.90;;;;;;2611469;54;20134;-74
2023/04/21 20:10:07;;;;;;;16.33;14.73;;;12.90;99.90;;;;;;2613562;39;20862;-73
2023/04/21 20:15:55;;;;;;;8.37;7.90;;;13.70;99.90;;;;;;2611848;54;20391;-73
2023/04/21 20:18:40;;;;;;;8.90;8.30;;;13.60;99.90;;;;;;2611849;47;20408;-74
2023/04/21 20:25:23;;;;;;;6.10;5.60;;;13.20;99.90;;;;;;2611463;54;20505;-74
2023/04/21 20:31:10;;;;;;;5.70;3.80;;;12.40;99.90;;;;;;2610215;54;21634;-73
2023/04/21 20:36:58;;;;;;;4.43;4.03;;;11.70;99.90;;;;;;2613207;39;20249;-72
2023/04/21 20:42:47;;;;;;;5.70;5.20;;;11.50;99.90;;;;;;2613159;54;20940;-73
2023/04/21 20:48:35;;;;;;;6.50;4.47;;;11.30;99.90;;;;;;2611052;54;20419;-74
2023/04/21 20:54:23;;;;;;;5.03;4.53;;;11.10;99.90;;;;;;2610167;54;20143;-73
2023/04/21 21:03:32;;;;;;;7.07;5.77;;;10.70;99.90;;;;;;2611961;54;20394;-73
2023/04/21 21:09:21;;;;;;;13.73;8.47;;;10.60;99.90;;;;;;2611054;54;20896;-74
2023/04/21 21:15:09;;;;;;;8.03;7.20;;;10.60;99.90;;;;;;2613054;54;20391;-75
2023/04/21 21:20:57;;;;;;;12.27;9.17;;;10.30;99.90;;;;;;2612542;54;20423;-74
2023/04/21 21:26:44;;;;;;;8.23;7.30;;;10.10;99.90;;;;;;2611196;54;20192;-73
2023/04/21 21:32:32;;;;;;;9.33;7.77;;;9.90;99.90;;;;;;2610187;54;20129;-73
2023/04/21 21:38:20;;;;;;;27.57;25.07;;;9.80;99.90;;;;;;2609569;54;20253;-73
2023/04/21 21:44:08;;;;;;;36.63;33.20;;;9.50;99.90;;;;;;2609795;54;20250;-72
2023/04/21 21:49:57;;;;;;;28.90;25.87;;;9.40;99.90;;;;;;2608872;54;20138;-73
2023/04/21 21:55:45;;;;;;;48.40;43.20;;;9.30;99.90;;;;;;2609618;54;20382;-72
2023/04/21 21:59:00;;;;;;;41.20;36.70;;;9.10;99.90;;;;;;2609487;54;20400;-72
2023/04/21 22:01:26;;;;;;;30.10;27.00;;;9.20;99.90;;;;;;2608611;54;20154;-73
2023/04/21 22:07:14;;;;;;;24.70;22.10;;;9.00;99.90;;;;;;2608077;54;20119;-72
2023/04/21 22:13:02;;;;;;;26.87;23.90;;;8.90;99.90;;;;;;2610391;54;20452;-73
2023/04/21 22:18:50;;;;;;;20.67;18.57;;;8.90;99.90;;;;;;2613760;54;20170;-73
2023/04/21 22:24:38;;;;;;;19.53;17.03;;;8.80;99.90;;;;;;2608872;54;20166;-73
2023/04/21 22:30:26;;;;;;;32.63;26.50;;;8.60;99.90;;;;;;2608438;46;20166;-73
2023/04/21 22:36:14;;;;;;;54.20;36.83;;;8.70;99.90;;;;;;2609389;54;20267;-72
2023/04/21 22:42:02;;;;;;;53.87;43.30;;;8.60;99.90;;;;;;2609471;54;20442;-72
2023/04/21 22:45:05;;;;;;;56.73;44.10;;;8.60;99.90;;;;;;2607983;54;20396;-72
2023/04/21 22:47:32;;;;;;;30.90;25.90;;;8.50;99.90;;;;;;2610612;54;20155;-73
2023/04/21 22:53:20;;;;;;;31.87;26.53;;;8.70;99.90;;;;;;2610663;54;20395;-72
2023/04/21 23:05:52;;;;;;;23.50;21.00;;;8.20;99.90;;;;;;2610392;54;20375;-73
2023/04/21 23:11:39;;;;;;;30.40;21.50;;;8.20;99.90;;;;;;2611399;54;20669;-72
2023/04/21 23:17:27;;;;;;;30.43;22.17;;;8.00;99.90;;;;;;2611335;39;20628;-73
2023/04/21 23:23:15;;;;;;;25.07;21.67;;;7.80;99.90;;;;;;2611347;54;20135;-73
2023/04/21 23:29:02;;;;;;;27.90;18.57;;;7.90;99.90;;;;;;2609875;54;20169;-72
2023/04/21 23:34:50;;;;;;;22.27;19.83;;;8.10;99.90;;;;;;2610079;54;20703;-73
2023/04/21 23:40:38;;;;;;;20.93;18.63;;;7.70;99.90;;;;;;2610145;54;20143;-73
2023/04/21 23:46:25;;;;;;;20.63;15.47;;;7.80;99.90;;;;;;2610862;54;20151;-72
2023/04/21 23:52:13;;;;;;;18.20;16.00;;;7.60;99.90;;;;;;2610436;54;20174;-74
2023/04/21 23:58:01;;;;;;;19.43;14.90;;;7.60;99.90;;;;;;2610854;54;20158;-73
